Time;durP1;ratioP1;P1;durP2;ratioP2;P2;SDS_P1;SDS_P2;PMS_P1;PMS_P2;Temp;Humidity;BMP_temperature;BMP_pressure;BME280_temperature;BME280_humidity;BME280_pressure;Samples;Min_cycle;Max_cycle;Signal;HPM_P1;HPM_P2
2021/07/28 00:00:38;;;;;;;8.93;4.25;;;21.60;89.70;;;;;;5028735;28;20022;-76
2021/07/28 00:03:03;;;;;;;10.95;4.55;;;21.60;89.40;;;;;;5024877;28;20063;-76
2021/07/28 00:05:29;;;;;;;5.90;4.47;;;21.60;89.20;;;;;;5026169;28;20123;-75
2021/07/28 00:07:54;;;;;;;6.25;4.40;;;21.60;91.50;;;;;;5026919;28;20060;-76
2021/07/28 00:10:20;;;;;;;8.13;4.40;;;21.40;93.20;;;;;;5028400;28;20107;-76
2021/07/28 00:12:45;;;;;;;7.18;4.00;;;21.40;92.30;;;;;;5025676;28;20024;-75
2021/07/28 00:15:12;;;;;;;7.90;4.38;;;21.30;91.40;;;;;;5026482;28;20026;-76
2021/07/28 00:17:44;;;;;;;4.65;3.55;;;21.30;91.80;;;;;;5026802;28;20076;-76
2021/07/28 00:20:24;;;;;;;9.75;4.07;;;21.30;93.10;;;;;;5027268;28;20022;-76
2021/07/28 00:25:38;;;;;;;9.05;4.57;;;21.20;92.10;;;;;;5035536;28;20060;-76
2021/07/28 00:28:04;;;;;;;4.70;4.03;;;21.20;91.90;;;;;;5031024;28;20062;-76
2021/07/28 00:30:30;;;;;;;16.40;4.85;;;21.20;91.80;;;;;;5029957;28;20033;-76
2021/07/28 00:32:56;;;;;;;5.70;3.45;;;21.10;96.60;;;;;;5028884;28;20395;-76
2021/07/28 00:35:21;;;;;;;8.15;4.43;;;21.10;95.80;;;;;;5029474;28;20026;-76
2021/07/28 00:37:47;;;;;;;4.63;3.92;;;21.10;93.30;;;;;;5029742;28;20032;-76
2021/07/28 00:40:14;;;;;;;8.20;4.05;;;21.00;95.30;;;;;;5031137;28;20022;-76
2021/07/28 00:42:39;;;;;;;5.63;4.22;;;20.90;95.70;;;;;;5031933;28;20049;-76
2021/07/28 00:45:05;;;;;;;4.88;4.32;;;20.90;95.90;;;;;;5030653;28;20057;-76
2021/07/28 00:47:30;;;;;;;7.38;4.53;;;20.80;97.60;;;;;;5030479;28;20083;-76
2021/07/28 00:49:56;;;;;;;5.97;4.60;;;20.70;98.30;;;;;;5029563;28;20028;-76
2021/07/28 00:52:21;;;;;;;9.88;4.57;;;20.60;99.60;;;;;;5030289;28;20029;-76
2021/07/28 00:54:48;;;;;;;5.78;4.45;;;20.50;99.90;;;;;;5030152;28;20021;-76
2021/07/28 00:57:13;;;;;;;9.32;4.47;;;20.40;99.90;;;;;;5030562;28;20021;-77
2021/07/28 00:59:40;;;;;;;5.28;4.28;;;20.30;99.90;;;;;;5028405;28;20029;-76
2021/07/28 01:02:05;;;;;;;8.30;4.78;;;20.20;99.90;;;;;;5028790;28;20036;-76
2021/07/28 01:04:31;;;;;;;9.45;4.47;;;20.10;99.90;;;;;;5030574;28;20025;-76
2021/07/28 01:06:59;;;;;;;6.45;4.22;;;20.00;99.90;;;;;;5028375;28;20041;-76
2021/07/28 01:09:28;;;;;;;5.53;4.40;;;19.90;99.90;;;;;;5027132;28;20115;-76
2021/07/28 01:11:54;;;;;;;7.97;4.32;;;19.90;99.90;;;;;;5028104;28;20132;-76
2021/07/28 01:14:20;;;;;;;6.55;4.70;;;19.80;99.90;;;;;;5028950;28;20563;-76
2021/07/28 01:16:47;;;;;;;6.90;4.55;;;19.80;99.90;;;;;;5029772;28;20049;-76
2021/07/28 01:19:16;;;;;;;6.93;4.38;;;19.70;99.90;;;;;;5028871;28;20025;-76
2021/07/28 01:21:44;;;;;;;7.38;4.88;;;19.70;99.90;;;;;;5029924;28;20037;-76
2021/07/28 01:24:11;;;;;;;5.97;4.45;;;19.60;99.90;;;;;;5042232;28;20055;-76
2021/07/28 01:26:38;;;;;;;7.15;4.70;;;19.60;99.90;;;;;;5030254;28;20045;-76
2021/07/28 01:29:05;;;;;;;6.95;4.68;;;19.50;99.90;;;;;;5029751;28;20104;-76
2021/07/28 01:31:40;;;;;;;5.32;4.30;;;19.50;99.90;;;;;;5024893;28;20033;-76
2021/07/28 01:34:07;;;;;;;5.75;4.30;;;19.50;99.90;;;;;;5027950;28;20072;-76
2021/07/28 01:36:34;;;;;;;9.88;4.72;;;19.50;99.90;;;;;;5024261;28;20044;-76
2021/07/28 01:39:00;;;;;;;7.93;5.20;;;19.40;99.90;;;;;;5026340;28;20099;-78
2021/07/28 01:41:26;;;;;;;6.60;4.82;;;19.40;99.90;;;;;;5028510;28;20029;-77
2021/07/28 01:43:51;;;;;;;7.85;4.85;;;19.40;99.90;;;;;;5028886;28;20025;-77
2021/07/28 01:46:18;;;;;;;5.78;4.35;;;19.30;99.90;;;;;;5029596;28;20071;-76
2021/07/28 01:48:43;;;;;;;7.00;4.75;;;19.30;99.90;;;;;;5029091;28;20030;-77
2021/07/28 01:51:09;;;;;;;11.10;5.10;;;19.30;99.90;;;;;;5027381;28;20025;-76
2021/07/28 01:53:36;;;;;;;7.40;4.30;;;19.20;99.90;;;;;;5030071;28;20048;-76
2021/07/28 01:56:01;;;;;;;5.63;4.32;;;19.20;99.90;;;;;;5029022;28;20022;-77
2021/07/28 01:58:27;;;;;;;9.48;5.28;;;19.20;99.90;;;;;;5029403;28;20498;-76
2021/07/28 02:00:53;;;;;;;6.50;4.68;;;19.20;99.90;;;;;;5025831;28;20389;-77
2021/07/28 02:03:18;;;;;;;6.95;4.63;;;19.10;99.90;;;;;;5028355;28;20029;-77
2021/07/28 02:05:44;;;;;;;9.00;5.20;;;19.10;99.90;;;;;;5027917;28;20060;-77
2021/07/28 02:08:12;;;;;;;5.93;4.55;;;19.10;99.90;;;;;;5027644;28;20546;-76
2021/07/28 02:10:42;;;;;;;7.45;4.63;;;19.10;99.90;;;;;;5027344;28;20060;-76
2021/07/28 02:13:07;;;;;;;6.82;4.25;;;19.10;99.90;;;;;;5029573;28;20022;-77
2021/07/28 02:15:35;;;;;;;7.03;5.00;;;19.00;99.90;;;;;;5029996;28;20455;-77
2021/07/28 02:18:01;;;;;;;8.88;4.68;;;19.00;99.90;;;;;;5028911;28;20122;-76
2021/07/28 02:20:28;;;;;;;5.38;4.40;;;18.90;99.90;;;;;;5028179;28;20094;-77
2021/07/28 02:22:54;;;;;;;10.35;4.78;;;18.90;99.90;;;;;;5027983;28;20026;-76
2021/07/28 02:25:20;;;;;;;9.57;5.07;;;18.90;99.90;;;;;;5030741;28;20045;-77
2021/07/28 02:27:46;;;;;;;7.20;4.68;;;18.90;99.90;;;;;;5028172;28;20021;-76
2021/07/28 02:30:13;;;;;;;6.53;4.78;;;18.90;99.90;;;;;;5028460;28;20862;-77
2021/07/28 02:32:39;;;;;;;9.52;5.30;;;18.90;99.90;;;;;;5028873;28;20053;-77
2021/07/28 02:35:06;;;;;;;11.02;5.30;;;18.90;99.90;;;;;;5028553;28;20468;-77
2021/07/28 02:37:32;;;;;;;8.45;5.07;;;18.90;99.90;;;;;;5028410;28;20037;-77
2021/07/28 02:39:58;;;;;;;7.32;5.07;;;18.90;99.90;;;;;;5027119;28;20040;-77
2021/07/28 02:42:24;;;;;;;6.25;4.82;;;18.90;99.90;;;;;;5027155;28;20062;-76
2021/07/28 02:44:50;;;;;;;8.95;4.97;;;18.90;99.90;;;;;;5028123;28;20033;-77
2021/07/28 02:47:15;;;;;;;6.30;4.47;;;18.90;99.90;;;;;;5027439;28;20536;-77
2021/07/28 02:49:41;;;;;;;9.13;5.00;;;18.90;99.90;;;;;;5027881;28;20068;-76
2021/07/28 02:52:06;;;;;;;9.57;4.85;;;18.90;99.90;;;;;;5029263;28;20025;-77
2021/07/28 02:54:32;;;;;;;5.97;4.97;;;18.80;99.90;;;;;;5026897;28;20041;-76
2021/07/28 02:56:58;;;;;;;8.38;5.10;;;18.80;99.90;;;;;;5027817;28;20112;-76
2021/07/28 02:59:23;;;;;;;9.40;5.07;;;18.80;99.90;;;;;;5026322;28;20021;-76
2021/07/28 03:04:24;;;;;;;6.68;5.18;;;18.80;99.90;;;;;;5826662;23;20110;-73
2021/07/28 03:06:50;;;;;;;11.45;4.78;;;18.80;99.90;;;;;;5035585;28;20482;-73
2021/07/28 03:09:15;;;;;;;7.70;5.15;;;18.80;99.90;;;;;;5039431;28;20417;-74
2021/07/28 03:11:41;;;;;;;8.10;4.82;;;18.80;99.90;;;;;;5036433;28;20028;-73
2021/07/28 03:14:06;;;;;;;10.57;5.22;;;18.80;99.90;;;;;;5039664;28;20017;-73
2021/07/28 03:16:32;;;;;;;11.00;5.63;;;18.80;99.90;;;;;;5042931;28;20036;-73
2021/07/28 03:18:58;;;;;;;9.50;5.80;;;18.90;99.90;;;;;;5042844;28;20100;-74
2021/07/28 03:21:23;;;;;;;5.63;4.90;;;18.80;99.90;;;;;;5036265;28;20049;-73
2021/07/28 03:23:49;;;;;;;6.93;5.18;;;18.90;99.90;;;;;;5045999;28;20056;-73
2021/07/28 03:26:15;;;;;;;9.80;4.82;;;18.90;99.90;;;;;;5039339;28;20029;-73
2021/07/28 03:28:41;;;;;;;5.78;4.97;;;18.90;99.90;;;;;;5038414;28;20051;-73
2021/07/28 03:31:06;;;;;;;6.95;5.03;;;18.90;99.90;;;;;;5037937;28;20471;-73
2021/07/28 03:33:32;;;;;;;10.35;5.05;;;18.90;99.90;;;;;;5039749;28;20098;-73
2021/07/28 03:35:57;;;;;;;7.35;4.60;;;19.00;99.90;;;;;;5048917;28;20431;-73
2021/07/28 03:38:23;;;;;;;8.98;5.57;;;19.00;99.90;;;;;;5042744;28;20112;-73
2021/07/28 03:40:48;;;;;;;6.80;5.07;;;18.90;99.90;;;;;;5040878;28;20056;-73
2021/07/28 03:43:15;;;;;;;8.65;5.15;;;19.00;99.90;;;;;;5043042;28;20498;-73
2021/07/28 03:45:41;;;;;;;5.78;4.60;;;19.00;99.90;;;;;;5042106;28;20080;-73
2021/07/28 03:48:06;;;;;;;6.68;5.07;;;19.00;99.90;;;;;;5034997;28;20106;-73
2021/07/28 03:50:32;;;;;;;6.72;5.32;;;19.00;99.90;;;;;;5040594;28;20025;-73
2021/07/28 03:53:00;;;;;;;12.75;5.38;;;19.00;99.90;;;;;;5044262;28;20021;-73
2021/07/28 03:55:29;;;;;;;7.20;4.60;;;19.00;99.90;;;;;;5046771;28;20434;-73
2021/07/28 03:57:55;;;;;;;7.88;5.00;;;19.10;99.90;;;;;;5047349;28;20066;-73
2021/07/28 04:00:20;;;;;;;9.82;4.57;;;19.10;99.90;;;;;;5045467;28;20025;-73
2021/07/28 04:02:49;;;;;;;8.60;5.88;;;19.10;99.90;;;;;;5038073;28;20057;-73
2021/07/28 04:05:15;;;;;;;7.45;5.18;;;19.10;99.90;;;;;;5045609;28;20041;-73
2021/07/28 04:07:41;;;;;;;7.65;5.22;;;19.20;99.90;;;;;;5035759;28;20022;-73
2021/07/28 04:10:07;;;;;;;5.63;4.70;;;19.30;99.90;;;;;;5048429;28;20040;-73
2021/07/28 04:12:32;;;;;;;8.60;4.50;;;19.40;99.90;;;;;;5037644;28;20846;-73
2021/07/28 04:14:59;;;;;;;5.70;4.65;;;19.50;99.90;;;;;;5040633;28;20045;-73
2021/07/28 04:17:24;;;;;;;7.00;4.40;;;19.50;99.90;;;;;;5039234;28;20037;-73
2021/07/28 04:19:50;;;;;;;6.57;4.78;;;19.60;99.90;;;;;;5042756;28;20021;-73
2021/07/28 04:22:19;;;;;;;6.18;4.25;;;19.70;99.90;;;;;;5040111;28;20108;-73
2021/07/28 04:24:45;;;;;;;6.03;4.20;;;19.70;99.90;;;;;;5043866;28;20029;-73
2021/07/28 04:27:11;;;;;;;6.05;4.03;;;19.70;99.90;;;;;;5044177;28;20043;-73
2021/07/28 04:29:37;;;;;;;6.00;4.20;;;19.70;99.90;;;;;;5037711;28;20463;-73
2021/07/28 04:32:03;;;;;;;5.78;4.22;;;19.80;99.90;;;;;;5041282;28;20466;-73
2021/07/28 04:34:28;;;;;;;7.32;4.60;;;19.80;99.90;;;;;;5042687;28;20071;-74
2021/07/28 04:36:54;;;;;;;5.70;4.63;;;19.80;99.90;;;;;;5042113;28;20033;-73
2021/07/28 04:39:20;;;;;;;8.73;4.35;;;19.70;99.90;;;;;;5033868;28;20021;-73
2021/07/28 04:41:45;;;;;;;9.35;4.50;;;19.70;99.90;;;;;;5040713;28;20055;-73
2021/07/28 04:44:11;;;;;;;6.80;4.07;;;19.70;99.90;;;;;;5039329;28;20410;-73
2021/07/28 04:46:42;;;;;;;5.57;3.80;;;19.70;99.90;;;;;;5044754;28;20026;-73
2021/07/28 04:49:08;;;;;;;5.90;4.60;;;19.70;99.90;;;;;;5037493;28;20124;-73
2021/07/28 04:51:34;;;;;;;6.55;4.25;;;19.80;99.90;;;;;;5037833;28;20116;-74
2021/07/28 04:53:59;;;;;;;7.72;3.92;;;19.80;99.90;;;;;;5037852;28;20471;-73
2021/07/28 04:56:24;;;;;;;5.03;4.18;;;19.80;99.90;;;;;;5040961;28;20036;-74
2021/07/28 04:58:50;;;;;;;5.28;4.30;;;19.80;99.90;;;;;;5036011;28;20032;-73
2021/07/28 05:01:15;;;;;;;5.57;3.90;;;19.80;99.90;;;;;;5034109;28;20509;-74
2021/07/28 05:03:41;;;;;;;7.15;4.40;;;19.90;99.90;;;;;;5042125;28;20029;-74
2021/07/28 05:06:06;;;;;;;7.70;4.22;;;19.90;99.90;;;;;;5040881;28;20076;-73
2021/07/28 05:08:32;;;;;;;7.15;4.53;;;19.90;99.90;;;;;;5039917;28;20398;-73
2021/07/28 05:10:57;;;;;;;6.07;4.10;;;19.80;99.90;;;;;;5037356;28;20029;-74
2021/07/28 05:13:23;;;;;;;8.93;4.53;;;19.80;99.90;;;;;;5041259;28;20083;-75
2021/07/28 05:15:55;;;;;;;8.70;4.40;;;19.80;99.90;;;;;;5040874;28;20028;-75
2021/07/28 05:18:23;;;;;;;8.75;4.47;;;19.80;99.90;;;;;;5050021;28;20021;-76
2021/07/28 05:20:49;;;;;;;5.75;4.22;;;19.90;99.90;;;;;;5051645;28;20021;-76
2021/07/28 05:23:14;;;;;;;7.93;4.03;;;19.90;99.90;;;;;;5043462;28;20526;-76
2021/07/28 05:25:40;;;;;;;8.68;4.85;;;19.90;99.90;;;;;;5034358;28;21410;-74
2021/07/28 05:28:06;;;;;;;6.47;4.80;;;20.00;99.90;;;;;;5032468;28;20131;-73
2021/07/28 05:30:34;;;;;;;5.65;4.10;;;20.00;99.90;;;;;;5042428;28;20040;-73
2021/07/28 05:33:00;;;;;;;6.78;4.55;;;20.10;99.90;;;;;;5030935;28;20064;-73
2021/07/28 05:35:26;;;;;;;7.40;4.65;;;20.00;99.90;;;;;;5047195;28;20060;-72
2021/07/28 05:38:02;;;;;;;6.05;4.25;;;20.10;99.90;;;;;;5050303;28;20021;-72
2021/07/28 05:40:28;;;;;;;5.85;4.03;;;20.10;99.90;;;;;;5039710;28;20037;-73
2021/07/28 05:42:54;;;;;;;7.53;4.47;;;20.10;99.90;;;;;;5044792;28;20044;-73
2021/07/28 05:45:20;;;;;;;5.82;4.60;;;20.10;99.90;;;;;;5040744;28;20041;-73
2021/07/28 05:47:45;;;;;;;6.28;4.30;;;20.10;99.90;;;;;;5038889;28;20034;-73
2021/07/28 05:50:15;;;;;;;7.95;5.00;;;20.10;99.90;;;;;;5048207;28;20029;-73
2021/07/28 05:52:42;;;;;;;12.00;4.38;;;20.10;99.90;;;;;;5041155;28;20026;-73
2021/07/28 05:55:08;;;;;;;6.22;4.22;;;20.10;99.90;;;;;;5044507;28;20076;-73
2021/07/28 05:57:33;;;;;;;6.47;4.20;;;20.10;99.90;;;;;;5043654;28;20098;-74
2021/07/28 05:59:59;;;;;;;7.93;4.13;;;20.10;99.90;;;;;;5040998;28;20021;-73
2021/07/28 06:02:24;;;;;;;5.72;4.18;;;20.10;99.90;;;;;;5047238;28;20752;-73
2021/07/28 06:04:50;;;;;;;5.30;4.13;;;20.10;99.90;;;;;;5042932;28;20398;-72
2021/07/28 06:07:15;;;;;;;6.45;3.65;;;20.20;99.90;;;;;;5036421;28;20120;-73
2021/07/28 06:09:41;;;;;;;8.10;4.10;;;20.20;99.90;;;;;;5039334;28;20043;-73
2021/07/28 06:12:10;;;;;;;6.13;4.22;;;20.30;99.90;;;;;;5046368;28;20026;-73
2021/07/28 06:14:35;;;;;;;6.20;4.40;;;20.30;99.90;;;;;;5041792;28;20037;-72
2021/07/28 06:17:01;;;;;;;8.77;4.28;;;20.30;99.90;;;;;;5045429;28;20020;-73
2021/07/28 06:19:26;;;;;;;5.93;3.90;;;20.40;99.90;;;;;;5047369;28;20463;-73
2021/07/28 06:21:52;;;;;;;5.72;3.67;;;20.40;99.90;;;;;;5038440;28;20044;-73
2021/07/28 06:24:17;;;;;;;5.85;3.88;;;20.50;99.90;;;;;;5041038;28;20037;-73
2021/07/28 06:26:43;;;;;;;5.38;3.90;;;20.60;99.90;;;;;;5049814;28;20079;-73
2021/07/28 06:29:09;;;;;;;6.57;3.92;;;20.60;99.90;;;;;;5038837;28;20021;-73
2021/07/28 06:31:34;;;;;;;6.95;4.10;;;20.50;99.90;;;;;;5042937;28;20565;-73
2021/07/28 06:33:59;;;;;;;6.90;4.38;;;20.50;99.90;;;;;;5048253;28;20509;-72
2021/07/28 06:36:25;;;;;;;6.47;4.32;;;20.60;99.90;;;;;;5047670;28;20064;-73
2021/07/28 06:38:50;;;;;;;6.78;4.07;;;20.60;99.90;;;;;;5042262;28;20017;-73
2021/07/28 06:41:16;;;;;;;6.63;4.30;;;20.60;99.90;;;;;;5034340;28;20049;-73
2021/07/28 06:43:41;;;;;;;6.90;3.97;;;20.70;99.90;;;;;;5038336;28;20032;-73
2021/07/28 06:46:07;;;;;;;4.90;3.40;;;20.70;99.90;;;;;;5035506;28;20021;-73
2021/07/28 06:48:32;;;;;;;5.72;3.90;;;20.80;99.90;;;;;;5041203;28;20041;-72
2021/07/28 06:50:58;;;;;;;5.13;3.78;;;20.80;99.90;;;;;;5037418;28;20112;-73
2021/07/28 06:53:23;;;;;;;7.60;3.45;;;20.90;99.40;;;;;;5048121;28;20028;-74
2021/07/28 06:55:52;;;;;;;6.15;3.30;;;20.90;96.70;;;;;;5046935;28;20111;-73
2021/07/28 06:58:18;;;;;;;8.00;3.63;;;20.90;98.40;;;;;;5037604;28;20018;-76
2021/07/28 07:00:45;;;;;;;5.30;3.53;;;20.90;95.80;;;;;;5043978;28;20100;-77
2021/07/28 07:03:10;;;;;;;4.13;3.70;;;20.90;94.90;;;;;;5033748;28;20057;-77
2021/07/28 07:05:36;;;;;;;6.15;3.10;;;20.90;95.50;;;;;;5028372;28;20065;-76
2021/07/28 07:08:01;;;;;;;5.28;2.92;;;20.90;93.80;;;;;;5034057;28;20600;-77
2021/07/28 07:10:27;;;;;;;4.72;2.80;;;20.80;94.10;;;;;;5046160;28;20442;-77
2021/07/28 07:12:52;;;;;;;6.43;3.13;;;20.80;93.90;;;;;;5048393;28;20040;-77
2021/07/28 07:15:18;;;;;;;5.22;3.50;;;20.80;93.70;;;;;;5037737;28;20024;-77
2021/07/28 07:17:43;;;;;;;4.68;3.22;;;20.80;94.60;;;;;;5048827;28;20375;-76
2021/07/28 07:20:09;;;;;;;4.38;3.22;;;20.90;93.90;;;;;;5043896;28;20403;-76
2021/07/28 07:22:35;;;;;;;3.67;2.72;;;20.90;93.60;;;;;;5048609;28;20029;-78
2021/07/28 07:25:00;;;;;;;6.10;3.55;;;20.90;93.50;;;;;;5034483;28;20025;-78
2021/07/28 07:27:29;;;;;;;4.78;3.70;;;21.00;94.10;;;;;;5033611;28;20030;-76
2021/07/28 07:29:55;;;;;;;4.75;3.35;;;21.10;93.60;;;;;;5042769;28;20053;-77
2021/07/28 07:32:22;;;;;;;6.25;3.80;;;21.20;93.80;;;;;;5048541;28;20048;-77
2021/07/28 07:34:49;;;;;;;4.70;3.85;;;21.30;93.60;;;;;;5045046;28;20027;-76
2021/07/28 07:37:15;;;;;;;5.47;3.65;;;21.30;93.00;;;;;;5045179;28;20048;-77
2021/07/28 07:39:40;;;;;;;8.82;3.67;;;21.30;94.00;;;;;;5035292;28;20522;-77
2021/07/28 07:42:06;;;;;;;5.55;3.60;;;21.30;93.60;;;;;;5040973;28;20033;-75
2021/07/28 07:44:31;;;;;;;7.15;3.35;;;21.40;93.90;;;;;;5045308;28;20098;-76
2021/07/28 07:46:57;;;;;;;7.18;3.85;;;21.40;94.60;;;;;;5036875;28;20397;-77
2021/07/28 07:49:22;;;;;;;5.38;3.65;;;21.40;93.30;;;;;;5041242;28;20029;-77
2021/07/28 07:51:48;;;;;;;4.82;3.22;;;21.40;93.70;;;;;;5042210;28;20056;-74
2021/07/28 07:54:13;;;;;;;6.20;3.83;;;21.40;94.60;;;;;;5051223;28;20059;-72
2021/07/28 07:56:39;;;;;;;5.80;3.67;;;21.30;94.50;;;;;;5041012;28;20086;-73
2021/07/28 07:59:04;;;;;;;7.40;4.03;;;21.30;94.90;;;;;;5044161;28;20033;-72
2021/07/28 08:01:30;;;;;;;5.47;3.47;;;21.30;95.60;;;;;;5040371;28;20029;-73
2021/07/28 08:03:55;;;;;;;6.85;4.13;;;21.40;95.30;;;;;;5034353;28;20033;-73
2021/07/28 08:06:21;;;;;;;4.72;3.40;;;21.60;94.40;;;;;;5044088;28;20049;-73
2021/07/28 08:08:46;;;;;;;7.13;3.47;;;21.70;94.70;;;;;;5045753;28;21768;-73
2021/07/28 08:11:13;;;;;;;4.10;3.13;;;21.80;93.60;;;;;;5039491;28;20032;-72
2021/07/28 08:13:40;;;;;;;5.15;3.40;;;21.80;94.30;;;;;;5037849;28;20029;-71
2021/07/28 08:16:20;;;;;;;5.53;3.38;;;21.90;94.60;;;;;;5043564;28;20060;-73
2021/07/28 08:18:47;;;;;;;6.07;3.67;;;22.00;94.00;;;;;;5042472;28;20083;-72
2021/07/28 08:21:12;;;;;;;3.78;3.20;;;22.00;93.30;;;;;;5046315;28;20462;-73
2021/07/28 08:23:39;;;;;;;3.92;2.90;;;22.00;93.00;;;;;;5044534;28;20112;-73
2021/07/28 08:26:05;;;;;;;4.57;3.42;;;21.90;93.30;;;;;;5041418;28;20025;-73
2021/07/28 08:28:31;;;;;;;6.07;3.65;;;21.80;94.10;;;;;;5048886;28;20116;-73
2021/07/28 08:30:56;;;;;;;8.38;3.30;;;21.80;92.70;;;;;;5049983;28;20032;-74
2021/07/28 08:33:23;;;;;;;4.18;3.20;;;21.80;92.90;;;;;;5033067;28;20029;-73
2021/07/28 08:35:49;;;;;;;6.18;3.00;;;21.90;93.20;;;;;;5041989;28;20021;-73
2021/07/28 08:38:14;;;;;;;4.28;3.25;;;21.90;93.30;;;;;;5038180;28;20029;-73
2021/07/28 08:40:41;;;;;;;5.22;3.03;;;21.90;93.40;;;;;;5038323;28;20032;-73
2021/07/28 08:43:07;;;;;;;5.40;3.22;;;22.00;92.90;;;;;;5048633;28;20052;-73
2021/07/28 08:45:33;;;;;;;3.83;2.70;;;22.10;92.70;;;;;;5046196;28;20035;-72
2021/07/28 08:47:59;;;;;;;5.90;3.33;;;22.20;92.30;;;;;;5049258;28;20460;-74
2021/07/28 08:50:28;;;;;;;4.35;3.40;;;22.10;92.90;;;;;;5035049;28;20017;-73
2021/07/28 08:52:56;;;;;;;4.40;3.20;;;22.20;93.00;;;;;;5038069;28;20025;-85
2021/07/28 08:55:22;;;;;;;4.65;3.20;;;22.20;94.30;;;;;;5037685;28;20033;-74
2021/07/28 08:57:48;;;;;;;6.00;3.45;;;22.30;93.70;;;;;;5039059;28;20502;-73
2021/07/28 09:00:16;;;;;;;5.60;3.40;;;22.40;93.90;;;;;;5038303;28;20108;-73
2021/07/28 09:02:42;;;;;;;4.32;3.38;;;22.50;93.40;;;;;;5037068;28;20056;-73
2021/07/28 09:05:08;;;;;;;8.52;3.72;;;22.50;92.40;;;;;;5034357;28;20736;-71
2021/07/28 09:07:38;;;;;;;5.25;3.72;;;22.50;92.50;;;;;;5045544;28;20028;-71
2021/07/28 09:10:04;;;;;;;6.03;3.40;;;22.50;92.40;;;;;;5046769;28;20041;-70
2021/07/28 09:12:32;;;;;;;5.63;3.70;;;22.50;92.50;;;;;;5045278;28;20620;-71
2021/07/28 09:15:01;;;;;;;4.63;3.42;;;22.40;93.10;;;;;;5041907;28;20025;-71
2021/07/28 09:17:28;;;;;;;4.53;3.20;;;22.30;93.80;;;;;;5038143;28;20082;-68
2021/07/28 09:19:55;;;;;;;4.68;3.33;;;22.30;93.10;;;;;;5042131;28;20096;-69
2021/07/28 09:22:22;;;;;;;5.72;3.28;;;22.40;93.90;;;;;;5043781;28;20029;-69
2021/07/28 09:25:06;;;;;;;4.00;2.92;;;22.50;94.30;;;;;;5041627;28;20044;-69
2021/07/28 09:27:44;;;;;;;4.13;3.20;;;22.50;91.90;;;;;;5037361;28;20041;-69
2021/07/28 09:30:13;;;;;;;4.13;3.00;;;22.60;91.70;;;;;;5044101;28;20116;-69
2021/07/28 09:33:09;;;;;;;5.93;3.10;;;22.70;91.80;;;;;;5046401;28;20253;-70
2021/07/28 09:35:50;;;;;;;3.63;3.05;;;22.70;90.40;;;;;;5043387;28;20025;-69
2021/07/28 09:38:31;;;;;;;5.73;3.40;;;22.80;91.30;;;;;;5044502;28;20108;-70
2021/07/28 09:41:21;;;;;;;3.85;3.00;;;22.90;90.10;;;;;;5045843;28;20025;-69
2021/07/28 09:43:56;;;;;;;3.90;3.05;;;23.10;91.80;;;;;;5045321;28;20025;-69
2021/07/28 09:46:24;;;;;;;3.55;3.00;;;23.10;90.40;;;;;;5047276;28;20052;-72
2021/07/28 09:49:03;;;;;;;5.10;2.90;;;23.30;88.40;;;;;;5045567;28;20033;-72
2021/07/28 09:51:41;;;;;;;3.45;3.13;;;23.40;86.40;;;;;;5045366;28;20025;-71
2021/07/28 09:54:11;;;;;;;4.47;3.05;;;23.60;86.20;;;;;;5045926;28;20056;-71
2021/07/28 09:56:48;;;;;;;8.38;3.28;;;23.70;87.70;;;;;;5046033;28;20086;-72
2021/07/28 09:59:14;;;;;;;6.55;3.17;;;23.60;84.40;;;;;;5048177;28;20025;-72
2021/07/28 10:01:42;;;;;;;3.97;2.63;;;23.70;83.50;;;;;;5050158;28;20796;-71
2021/07/28 10:04:10;;;;;;;4.38;2.63;;;23.70;84.20;;;;;;5034581;28;20033;-71
2021/07/28 10:06:40;;;;;;;3.75;2.67;;;23.80;84.70;;;;;;5040072;28;21661;-71
2021/07/28 10:09:25;;;;;;;6.20;3.22;;;23.90;79.20;;;;;;5038939;28;20041;-71
2021/07/28 10:11:52;;;;;;;3.92;2.97;;;23.90;77.30;;;;;;5047243;28;20372;-71
2021/07/28 10:14:19;;;;;;;4.25;2.78;;;23.80;78.40;;;;;;5046234;28;20016;-73
2021/07/28 10:16:45;;;;;;;3.42;2.42;;;23.80;77.20;;;;;;5032900;28;20454;-72
2021/07/28 10:19:11;;;;;;;2.72;2.35;;;23.90;74.40;;;;;;5037326;28;20116;-72
2021/07/28 10:21:38;;;;;;;5.28;2.50;;;23.80;72.20;;;;;;5042626;28;20107;-72
2021/07/28 10:24:25;;;;;;;3.53;2.67;;;23.80;72.60;;;;;;5041435;28;20075;-72
2021/07/28 10:26:53;;;;;;;3.03;2.53;;;23.80;73.60;;;;;;5041222;28;20037;-72
2021/07/28 10:29:27;;;;;;;5.25;2.83;;;23.80;70.80;;;;;;5048561;28;20115;-72
2021/07/28 10:31:54;;;;;;;4.72;2.78;;;23.90;72.80;;;;;;5048265;28;20056;-72
2021/07/28 10:34:27;;;;;;;3.20;2.47;;;24.00;70.70;;;;;;5046916;28;20021;-71
2021/07/28 10:37:01;;;;;;;4.47;2.50;;;24.00;68.40;;;;;;5048681;28;20024;-72
2021/07/28 10:39:48;;;;;;;3.33;2.75;;;24.10;73.80;;;;;;5048576;28;20021;-72
2021/07/28 10:42:18;;;;;;;2.40;2.20;;;24.20;72.20;;;;;;5043087;28;20036;-72
2021/07/28 10:45:09;;;;;;;3.95;2.58;;;24.20;68.20;;;;;;5044103;28;20477;-73
2021/07/28 10:47:34;;;;;;;;;;;24.20;67.60;;;;;;5035265;28;20034;-72
2021/07/28 10:50:01;;;;;;;2.97;2.35;;;24.30;71.30;;;;;;5048801;28;20278;-73
2021/07/28 10:52:37;;;;;;;3.50;2.67;;;24.30;70.50;;;;;;5048157;28;20031;-73
2021/07/28 10:55:03;;;;;;;3.50;2.60;;;24.40;68.30;;;;;;5049002;28;20133;-72
2021/07/28 10:57:43;;;;;;;6.53;2.80;;;24.50;71.00;;;;;;5037353;28;20098;-72
2021/07/28 11:00:11;;;;;;;8.23;2.70;;;24.50;66.30;;;;;;5038869;28;20602;-72
2021/07/28 11:02:55;;;;;;;2.85;2.35;;;24.40;68.60;;;;;;5044049;28;20033;-72
2021/07/28 11:05:31;;;;;;;2.65;2.45;;;24.50;66.30;;;;;;5041582;28;20049;-72
2021/07/28 11:08:02;;;;;;;3.15;2.65;;;24.70;66.80;;;;;;5048029;28;20394;-72
2021/07/28 11:10:28;;;;;;;;;;;24.60;66.40;;;;;;5048424;28;20455;-72
2021/07/28 11:12:54;;;;;;;3.35;2.30;;;24.70;64.80;;;;;;5042888;28;19913;-72
2021/07/28 11:15:20;;;;;;;2.85;2.22;;;24.70;64.20;;;;;;5043125;28;20070;-72
2021/07/28 11:17:46;;;;;;;3.05;2.17;;;24.70;63.00;;;;;;5048263;28;20044;-72
2021/07/28 11:20:26;;;;;;;2.78;2.13;;;24.70;61.20;;;;;;5048303;28;20025;-72
2021/07/28 11:22:52;;;;;;;3.35;2.67;;;24.70;62.10;;;;;;5042872;28;20107;-72
2021/07/28 11:25:18;;;;;;;4.68;2.47;;;24.70;62.50;;;;;;5043780;28;20134;-72
2021/07/28 11:28:06;;;;;;;4.65;2.63;;;24.80;64.10;;;;;;5047976;28;20032;-72
2021/07/28 11:30:31;;;;;;;3.15;2.60;;;24.90;64.30;;;;;;5048226;28;20551;-72
2021/07/28 11:33:16;;;;;;;3.60;2.67;;;25.10;64.20;;;;;;5047897;28;20112;-72
2021/07/28 11:35:51;;;;;;;5.10;2.70;;;25.20;62.90;;;;;;5037203;28;20028;-72
2021/07/28 11:38:17;;;;;;;4.25;2.80;;;25.20;64.30;;;;;;5046813;28;20025;-72
2021/07/28 11:40:47;;;;;;;4.05;2.45;;;25.20;63.30;;;;;;5044668;28;20032;-72
2021/07/28 11:43:39;;;;;;;3.33;2.50;;;25.20;65.00;;;;;;5047947;28;20453;-72
2021/07/28 11:46:18;;;;;;;3.40;2.47;;;25.20;63.70;;;;;;5044468;28;20029;-72
2021/07/28 11:48:50;;;;;;;2.58;2.33;;;25.30;61.50;;;;;;5047022;28;20025;-73
2021/07/28 11:51:35;;;;;;;3.30;2.55;;;25.40;61.60;;;;;;5048008;28;20037;-72
2021/07/28 11:54:15;;;;;;;4.65;2.42;;;25.40;61.10;;;;;;5048328;28;20075;-72
2021/07/28 11:56:45;;;;;;;3.92;2.90;;;25.60;61.20;;;;;;5037588;28;20048;-72
2021/07/28 11:59:12;;;;;;;3.40;2.17;;;25.50;62.50;;;;;;5047329;28;20132;-73
2021/07/28 12:01:50;;;;;;;2.88;2.45;;;25.60;62.00;;;;;;5032812;28;20036;-72
2021/07/28 12:04:29;;;;;;;3.40;2.40;;;25.40;60.50;;;;;;5043231;28;20509;-72
2021/07/28 12:06:59;;;;;;;3.47;2.70;;;25.30;61.20;;;;;;5043453;28;20041;-72
2021/07/28 12:09:28;;;;;;;2.80;2.30;;;25.30;62.30;;;;;;5047738;28;20068;-72
2021/07/28 12:12:02;;;;;;;3.45;2.60;;;25.10;61.90;;;;;;5046352;28;20040;-72
2021/07/28 12:14:47;;;;;;;3.13;2.45;;;25.20;62.30;;;;;;5028583;28;20032;-72
2021/07/28 12:17:13;;;;;;;3.17;2.80;;;25.20;62.90;;;;;;5045590;28;20017;-72
2021/07/28 12:19:39;;;;;;;4.47;2.53;;;25.30;62.70;;;;;;5051160;28;20563;-72
2021/07/28 12:22:13;;;;;;;3.05;2.40;;;25.30;61.50;;;;;;5051474;28;20029;-71
2021/07/28 12:24:46;;;;;;;3.28;2.53;;;25.50;62.50;;;;;;5048892;28;20033;-72
2021/07/28 12:27:35;;;;;;;3.45;2.40;;;25.50;60.30;;;;;;5040886;28;20021;-72
2021/07/28 12:30:03;;;;;;;3.47;2.83;;;25.40;61.40;;;;;;5043093;28;20037;-72
2021/07/28 12:32:34;;;;;;;3.00;2.40;;;25.40;63.30;;;;;;5050914;28;20441;-72
2021/07/28 12:35:02;;;;;;;3.08;2.58;;;25.40;63.90;;;;;;5046706;28;20084;-72
2021/07/28 12:37:27;;;;;;;3.42;2.70;;;25.40;63.70;;;;;;5049919;28;20095;-72
2021/07/28 12:39:57;;;;;;;4.43;2.67;;;25.40;62.60;;;;;;5050749;28;20526;-72
2021/07/28 12:42:23;;;;;;;3.55;2.78;;;25.40;63.20;;;;;;5042833;28;20060;-72
2021/07/28 12:44:48;;;;;;;3.53;2.75;;;25.40;64.40;;;;;;5051139;28;20056;-72
2021/07/28 12:47:14;;;;;;;3.85;2.72;;;25.40;65.70;;;;;;5038680;28;20037;-72
2021/07/28 12:49:39;;;;;;;3.70;2.53;;;25.40;64.50;;;;;;5047027;28;20037;-72
2021/07/28 12:52:05;;;;;;;3.20;2.70;;;25.40;63.40;;;;;;5050993;28;20438;-72
2021/07/28 12:54:30;;;;;;;3.72;2.78;;;25.50;63.90;;;;;;5050815;28;20021;-72
2021/07/28 12:56:56;;;;;;;3.75;2.45;;;25.40;62.90;;;;;;5047554;28;20029;-72